sensor_id;sensor_type;location;lat;lon;timestamp;P1;durP1;ratioP1;P2;durP2;ratioP2
77217;SDS011;66214;51.302;17.068;2023-12-04T00:01:29;39.50;;;16.60;;
77217;SDS011;66214;51.302;17.068;2023-12-04T00:03:57;36.20;;;15.00;;
77217;SDS011;66214;51.302;17.068;2023-12-04T00:06:26;43.00;;;17.80;;
77217;SDS011;66214;51.302;17.068;2023-12-04T00:08:54;47.70;;;19.10;;
77217;SDS011;66214;51.302;17.068;2023-12-04T00:11:22;53.60;;;18.80;;
77217;SDS011;66214;51.302;17.068;2023-12-04T00:13:50;43.10;;;18.50;;
77217;SDS011;66214;51.302;17.068;2023-12-04T00:16:18;36.10;;;16.40;;
77217;SDS011;66214;51.302;17.068;2023-12-04T00:18:46;32.10;;;12.30;;
77217;SDS011;66214;51.302;17.068;2023-12-04T00:21:15;23.30;;;9.70;;
77217;SDS011;66214;51.302;17.068;2023-12-04T00:23:43;25.20;;;8.80;;
77217;SDS011;66214;51.302;17.068;2023-12-04T00:26:12;17.70;;;7.50;;
77217;SDS011;66214;51.302;17.068;2023-12-04T00:28:40;24.20;;;9.30;;
77217;SDS011;66214;51.302;17.068;2023-12-04T00:31:08;19.10;;;9.10;;
77217;SDS011;66214;51.302;17.068;2023-12-04T00:33:38;16.40;;;8.20;;
77217;SDS011;66214;51.302;17.068;2023-12-04T00:36:06;19.50;;;8.10;;
77217;SDS011;66214;51.302;17.068;2023-12-04T00:38:35;20.00;;;7.90;;
77217;SDS011;66214;51.302;17.068;2023-12-04T00:41:03;19.20;;;8.10;;
77217;SDS011;66214;51.302;17.068;2023-12-04T00:43:31;22.70;;;9.40;;
77217;SDS011;66214;51.302;17.068;2023-12-04T00:45:59;31.10;;;11.30;;
77217;SDS011;66214;51.302;17.068;2023-12-04T00:48:28;31.40;;;10.80;;
77217;SDS011;66214;51.302;17.068;2023-12-04T00:50:57;32.60;;;11.50;;
77217;SDS011;66214;51.302;17.068;2023-12-04T00:53:25;28.60;;;11.60;;
77217;SDS011;66214;51.302;17.068;2023-12-04T00:55:53;28.90;;;11.20;;
77217;SDS011;66214;51.302;17.068;2023-12-04T00:58:21;27.00;;;10.10;;
77217;SDS011;66214;51.302;17.068;2023-12-04T01:00:49;24.90;;;9.20;;
77217;SDS011;66214;51.302;17.068;2023-12-04T01:03:19;24.10;;;9.10;;
77217;SDS011;66214;51.302;17.068;2023-12-04T01:05:47;25.80;;;9.70;;
77217;SDS011;66214;51.302;17.068;2023-12-04T01:08:15;24.00;;;9.40;;
77217;SDS011;66214;51.302;17.068;2023-12-04T01:10:43;23.40;;;9.80;;
77217;SDS011;66214;51.302;17.068;2023-12-04T01:13:11;22.30;;;10.30;;
77217;SDS011;66214;51.302;17.068;2023-12-04T01:15:39;22.20;;;9.20;;
77217;SDS011;66214;51.302;17.068;2023-12-04T01:18:07;23.30;;;8.10;;
77217;SDS011;66214;51.302;17.068;2023-12-04T01:20:35;24.30;;;10.20;;
77217;SDS011;66214;51.302;17.068;2023-12-04T01:23:04;21.50;;;8.50;;
77217;SDS011;66214;51.302;17.068;2023-12-04T01:25:32;20.80;;;8.00;;
77217;SDS011;66214;51.302;17.068;2023-12-04T01:28:00;21.40;;;9.10;;
77217;SDS011;66214;51.302;17.068;2023-12-04T01:30:27;22.60;;;8.60;;
77217;SDS011;66214;51.302;17.068;2023-12-04T01:32:55;21.00;;;8.70;;
77217;SDS011;66214;51.302;17.068;2023-12-04T01:35:23;21.80;;;8.00;;
77217;SDS011;66214;51.302;17.068;2023-12-04T01:37:51;24.00;;;10.10;;
77217;SDS011;66214;51.302;17.068;2023-12-04T01:40:19;23.70;;;9.80;;
77217;SDS011;66214;51.302;17.068;2023-12-04T01:42:48;29.20;;;10.80;;
77217;SDS011;66214;51.302;17.068;2023-12-04T01:45:16;32.40;;;12.80;;
77217;SDS011;66214;51.302;17.068;2023-12-04T01:47:46;36.80;;;12.70;;
77217;SDS011;66214;51.302;17.068;2023-12-04T01:50:15;29.50;;;12.30;;
77217;SDS011;66214;51.302;17.068;2023-12-04T01:52:43;34.80;;;12.60;;
77217;SDS011;66214;51.302;17.068;2023-12-04T01:55:12;31.10;;;13.10;;
77217;SDS011;66214;51.302;17.068;2023-12-04T01:57:41;35.30;;;13.60;;
77217;SDS011;66214;51.302;17.068;2023-12-04T02:00:10;34.60;;;13.00;;
77217;SDS011;66214;51.302;17.068;2023-12-04T02:02:40;30.70;;;12.30;;
77217;SDS011;66214;51.302;17.068;2023-12-04T02:05:12;30.20;;;12.40;;
77217;SDS011;66214;51.302;17.068;2023-12-04T02:07:41;32.20;;;14.10;;
77217;SDS011;66214;51.302;17.068;2023-12-04T02:10:09;35.90;;;14.70;;
77217;SDS011;66214;51.302;17.068;2023-12-04T02:12:37;24.90;;;8.40;;
77217;SDS011;66214;51.302;17.068;2023-12-04T05:03:40;27.90;;;12.20;;
77217;SDS011;66214;51.302;17.068;2023-12-04T05:06:08;29.20;;;11.80;;
77217;SDS011;66214;51.302;17.068;2023-12-04T05:08:37;24.70;;;11.10;;
77217;SDS011;66214;51.302;17.068;2023-12-04T05:11:05;25.70;;;10.40;;
77217;SDS011;66214;51.302;17.068;2023-12-04T05:13:33;23.40;;;10.60;;
77217;SDS011;66214;51.302;17.068;2023-12-04T05:16:01;29.00;;;11.50;;
77217;SDS011;66214;51.302;17.068;2023-12-04T05:18:29;23.40;;;10.20;;
77217;SDS011;66214;51.302;17.068;2023-12-04T05:20:57;29.80;;;12.30;;
77217;SDS011;66214;51.302;17.068;2023-12-04T05:23:25;31.60;;;13.10;;
77217;SDS011;66214;51.302;17.068;2023-12-04T05:25:53;31.50;;;13.40;;
77217;SDS011;66214;51.302;17.068;2023-12-04T05:28:21;27.80;;;11.60;;
77217;SDS011;66214;51.302;17.068;2023-12-04T05:30:49;32.00;;;13.70;;
77217;SDS011;66214;51.302;17.068;2023-12-04T05:33:17;30.60;;;13.00;;
77217;SDS011;66214;51.302;17.068;2023-12-04T05:35:47;31.90;;;13.70;;
77217;SDS011;66214;51.302;17.068;2023-12-04T05:38:15;33.30;;;14.00;;
77217;SDS011;66214;51.302;17.068;2023-12-04T05:40:44;30.10;;;13.50;;
77217;SDS011;66214;51.302;17.068;2023-12-04T05:43:12;42.30;;;15.40;;
77217;SDS011;66214;51.302;17.068;2023-12-04T05:45:40;23.50;;;9.20;;
77217;SDS011;66214;51.302;17.068;2023-12-04T05:48:08;37.70;;;16.40;;
77217;SDS011;66214;51.302;17.068;2023-12-04T05:50:36;39.70;;;15.60;;
77217;SDS011;66214;51.302;17.068;2023-12-04T05:53:06;40.70;;;17.00;;
77217;SDS011;66214;51.302;17.068;2023-12-04T05:55:34;32.60;;;15.10;;
77217;SDS011;66214;51.302;17.068;2023-12-04T05:58:02;36.90;;;16.40;;
77217;SDS011;66214;51.302;17.068;2023-12-04T06:00:31;38.30;;;17.30;;
77217;SDS011;66214;51.302;17.068;2023-12-04T06:02:58;39.30;;;16.10;;
77217;SDS011;66214;51.302;17.068;2023-12-04T06:05:27;36.00;;;15.80;;
77217;SDS011;66214;51.302;17.068;2023-12-04T06:07:55;34.50;;;15.20;;
77217;SDS011;66214;51.302;17.068;2023-12-04T06:10:23;36.20;;;15.30;;
77217;SDS011;66214;51.302;17.068;2023-12-04T06:12:51;44.20;;;17.30;;
77217;SDS011;66214;51.302;17.068;2023-12-04T06:15:19;35.10;;;14.50;;
77217;SDS011;66214;51.302;17.068;2023-12-04T06:17:47;28.50;;;13.20;;
77217;SDS011;66214;51.302;17.068;2023-12-04T06:20:15;34.20;;;14.90;;
77217;SDS011;66214;51.302;17.068;2023-12-04T06:22:43;31.60;;;13.50;;
77217;SDS011;66214;51.302;17.068;2023-12-04T06:25:12;33.50;;;14.70;;
77217;SDS011;66214;51.302;17.068;2023-12-04T06:27:41;26.60;;;10.80;;
77217;SDS011;66214;51.302;17.068;2023-12-04T06:30:10;32.80;;;13.70;;
77217;SDS011;66214;51.302;17.068;2023-12-04T06:32:40;18.00;;;7.30;;
77217;SDS011;66214;51.302;17.068;2023-12-04T06:35:09;28.60;;;12.40;;
77217;SDS011;66214;51.302;17.068;2023-12-04T06:37:38;16.60;;;6.90;;
77217;SDS011;66214;51.302;17.068;2023-12-04T06:40:07;28.70;;;12.80;;
77217;SDS011;66214;51.302;17.068;2023-12-04T06:42:39;30.20;;;12.70;;
77217;SDS011;66214;51.302;17.068;2023-12-04T06:45:08;20.90;;;9.30;;
77217;SDS011;66214;51.302;17.068;2023-12-04T06:47:40;24.70;;;11.90;;
77217;SDS011;66214;51.302;17.068;2023-12-04T06:50:09;27.20;;;11.10;;
77217;SDS011;66214;51.302;17.068;2023-12-04T06:52:37;27.70;;;13.00;;
77217;SDS011;66214;51.302;17.068;2023-12-04T06:55:06;22.10;;;10.30;;
77217;SDS011;66214;51.302;17.068;2023-12-04T06:57:34;19.30;;;8.80;;
77217;SDS011;66214;51.302;17.068;2023-12-04T07:00:03;32.10;;;13.40;;
77217;SDS011;66214;51.302;17.068;2023-12-04T08:03:40;25.30;;;12.10;;
77217;SDS011;66214;51.302;17.068;2023-12-04T08:06:08;29.40;;;13.10;;
77217;SDS011;66214;51.302;17.068;2023-12-04T08:08:36;26.90;;;11.00;;
77217;SDS011;66214;51.302;17.068;2023-12-04T08:11:05;18.30;;;7.70;;
77217;SDS011;66214;51.302;17.068;2023-12-04T08:13:33;30.10;;;11.90;;
77217;SDS011;66214;51.302;17.068;2023-12-04T08:16:01;14.80;;;5.60;;
77217;SDS011;66214;51.302;17.068;2023-12-04T08:18:29;30.90;;;12.00;;
77217;SDS011;66214;51.302;17.068;2023-12-04T08:21:00;28.60;;;10.60;;
77217;SDS011;66214;51.302;17.068;2023-12-04T08:23:28;35.30;;;12.90;;
77217;SDS011;66214;51.302;17.068;2023-12-04T08:25:56;33.40;;;13.20;;
77217;SDS011;66214;51.302;17.068;2023-12-04T08:28:25;27.00;;;10.90;;
77217;SDS011;66214;51.302;17.068;2023-12-04T08:30:53;28.90;;;12.90;;
77217;SDS011;66214;51.302;17.068;2023-12-04T08:33:22;21.20;;;8.60;;
77217;SDS011;66214;51.302;17.068;2023-12-04T08:35:50;13.60;;;5.80;;
77217;SDS011;66214;51.302;17.068;2023-12-04T08:38:18;19.50;;;8.60;;
77217;SDS011;66214;51.302;17.068;2023-12-04T08:40:46;24.40;;;8.20;;
77217;SDS011;66214;51.302;17.068;2023-12-04T08:43:15;23.10;;;8.00;;
77217;SDS011;66214;51.302;17.068;2023-12-04T08:45:43;24.10;;;8.80;;
77217;SDS011;66214;51.302;17.068;2023-12-04T08:48:12;23.60;;;10.70;;
77217;SDS011;66214;51.302;17.068;2023-12-04T08:50:41;24.80;;;9.50;;
77217;SDS011;66214;51.302;17.068;2023-12-04T08:53:11;27.90;;;12.60;;
77217;SDS011;66214;51.302;17.068;2023-12-04T08:59:09;25.00;;;9.10;;
77217;SDS011;66214;51.302;17.068;2023-12-04T09:01:38;24.40;;;9.90;;
77217;SDS011;66214;51.302;17.068;2023-12-04T09:04:08;30.50;;;12.90;;
77217;SDS011;66214;51.302;17.068;2023-12-04T09:06:37;33.30;;;13.40;;
77217;SDS011;66214;51.302;17.068;2023-12-04T09:09:06;32.30;;;12.90;;
77217;SDS011;66214;51.302;17.068;2023-12-04T09:11:40;35.10;;;14.00;;
77217;SDS011;66214;51.302;17.068;2023-12-04T09:14:11;22.30;;;9.70;;
77217;SDS011;66214;51.302;17.068;2023-12-04T09:16:40;26.10;;;11.00;;
77217;SDS011;66214;51.302;17.068;2023-12-04T09:19:08;21.90;;;8.60;;
77217;SDS011;66214;51.302;17.068;2023-12-04T09:21:36;21.60;;;8.00;;
77217;SDS011;66214;51.302;17.068;2023-12-04T09:24:06;23.50;;;10.80;;
77217;SDS011;66214;51.302;17.068;2023-12-04T09:26:35;20.10;;;8.10;;
77217;SDS011;66214;51.302;17.068;2023-12-04T09:29:03;31.90;;;12.50;;
77217;SDS011;66214;51.302;17.068;2023-12-04T09:31:32;23.80;;;10.60;;
77217;SDS011;66214;51.302;17.068;2023-12-04T09:34:00;27.80;;;11.30;;
77217;SDS011;66214;51.302;17.068;2023-12-04T09:36:28;23.60;;;11.20;;
77217;SDS011;66214;51.302;17.068;2023-12-04T09:38:57;19.90;;;8.30;;
77217;SDS011;66214;51.302;17.068;2023-12-04T09:41:26;22.50;;;10.10;;
77217;SDS011;66214;51.302;17.068;2023-12-04T09:43:54;23.50;;;10.10;;
77217;SDS011;66214;51.302;17.068;2023-12-04T09:46:22;18.80;;;9.00;;
77217;SDS011;66214;51.302;17.068;2023-12-04T09:48:52;23.90;;;11.00;;
77217;SDS011;66214;51.302;17.068;2023-12-04T09:51:21;19.90;;;7.50;;
77217;SDS011;66214;51.302;17.068;2023-12-04T09:53:50;22.70;;;11.20;;
77217;SDS011;66214;51.302;17.068;2023-12-04T09:56:20;23.70;;;8.90;;
77217;SDS011;66214;51.302;17.068;2023-12-04T09:58:55;24.00;;;11.00;;
77217;SDS011;66214;51.302;17.068;2023-12-04T10:01:29;26.20;;;10.60;;
77217;SDS011;66214;51.302;17.068;2023-12-04T10:04:01;19.20;;;8.00;;
77217;SDS011;66214;51.302;17.068;2023-12-04T10:06:33;22.90;;;9.80;;
77217;SDS011;66214;51.302;17.068;2023-12-04T10:09:01;22.60;;;9.20;;
77217;SDS011;66214;51.302;17.068;2023-12-04T10:11:31;28.10;;;12.40;;
77217;SDS011;66214;51.302;17.068;2023-12-04T10:13:59;31.20;;;13.10;;
77217;SDS011;66214;51.302;17.068;2023-12-04T10:16:35;29.30;;;12.00;;
77217;SDS011;66214;51.302;17.068;2023-12-04T10:22:02;25.80;;;11.50;;
77217;SDS011;66214;51.302;17.068;2023-12-04T10:24:33;25.70;;;11.80;;
77217;SDS011;66214;51.302;17.068;2023-12-04T10:27:05;25.70;;;11.80;;
77217;SDS011;66214;51.302;17.068;2023-12-04T10:32:18;28.90;;;14.00;;
77217;SDS011;66214;51.302;17.068;2023-12-04T10:34:49;23.20;;;12.40;;
77217;SDS011;66214;51.302;17.068;2023-12-04T10:37:19;24.70;;;12.20;;
77217;SDS011;66214;51.302;17.068;2023-12-04T10:39:51;23.80;;;11.50;;
77217;SDS011;66214;51.302;17.068;2023-12-04T10:42:26;24.30;;;12.10;;
77217;SDS011;66214;51.302;17.068;2023-12-04T10:44:56;22.90;;;12.00;;
77217;SDS011;66214;51.302;17.068;2023-12-04T10:47:26;27.10;;;13.40;;
77217;SDS011;66214;51.302;17.068;2023-12-04T10:49:56;24.10;;;11.90;;
77217;SDS011;66214;51.302;17.068;2023-12-04T10:52:24;21.00;;;11.10;;
77217;SDS011;66214;51.302;17.068;2023-12-04T10:54:53;21.50;;;10.70;;
77217;SDS011;66214;51.302;17.068;2023-12-04T10:57:26;22.00;;;11.40;;
77217;SDS011;66214;51.302;17.068;2023-12-04T10:59:57;23.50;;;12.00;;
77217;SDS011;66214;51.302;17.068;2023-12-04T11:04:00;25.60;;;13.00;;
77217;SDS011;66214;51.302;17.068;2023-12-04T11:06:39;25.90;;;11.60;;
77217;SDS011;66214;51.302;17.068;2023-12-04T11:09:08;28.60;;;13.00;;
77217;SDS011;66214;51.302;17.068;2023-12-04T11:11:40;22.60;;;10.80;;
77217;SDS011;66214;51.302;17.068;2023-12-04T11:14:14;23.70;;;11.00;;
77217;SDS011;66214;51.302;17.068;2023-12-04T11:16:53;24.30;;;11.00;;
77217;SDS011;66214;51.302;17.068;2023-12-04T11:22:25;28.30;;;11.50;;
77217;SDS011;66214;51.302;17.068;2023-12-04T11:24:54;26.50;;;11.70;;
77217;SDS011;66214;51.302;17.068;2023-12-04T11:27:23;22.40;;;10.50;;
77217;SDS011;66214;51.302;17.068;2023-12-04T11:29:51;24.90;;;12.00;;
77217;SDS011;66214;51.302;17.068;2023-12-04T11:32:24;24.80;;;10.70;;
77217;SDS011;66214;51.302;17.068;2023-12-04T11:34:55;27.50;;;12.10;;
77217;SDS011;66214;51.302;17.068;2023-12-04T11:37:24;32.00;;;14.00;;
77217;SDS011;66214;51.302;17.068;2023-12-04T11:39:53;27.10;;;12.60;;
77217;SDS011;66214;51.302;17.068;2023-12-04T11:42:23;31.20;;;13.20;;
77217;SDS011;66214;51.302;17.068;2023-12-04T11:44:58;30.30;;;13.10;;
77217;SDS011;66214;51.302;17.068;2023-12-04T11:47:28;28.70;;;13.70;;
77217;SDS011;66214;51.302;17.068;2023-12-04T11:49:57;31.10;;;13.80;;
77217;SDS011;66214;51.302;17.068;2023-12-04T11:52:34;32.00;;;14.50;;
77217;SDS011;66214;51.302;17.068;2023-12-04T11:55:05;34.10;;;14.50;;
77217;SDS011;66214;51.302;17.068;2023-12-04T11:57:38;33.20;;;16.20;;
77217;SDS011;66214;51.302;17.068;2023-12-04T12:00:23;31.20;;;15.00;;
77217;SDS011;66214;51.302;17.068;2023-12-04T12:05:22;30.70;;;13.40;;
77217;SDS011;66214;51.302;17.068;2023-12-04T12:07:51;25.60;;;11.90;;
77217;SDS011;66214;51.302;17.068;2023-12-04T12:10:19;32.00;;;14.60;;
77217;SDS011;66214;51.302;17.068;2023-12-04T12:12:48;31.10;;;11.90;;
77217;SDS011;66214;51.302;17.068;2023-12-04T12:15:17;27.50;;;12.00;;
77217;SDS011;66214;51.302;17.068;2023-12-04T12:17:45;35.60;;;16.80;;
77217;SDS011;66214;51.302;17.068;2023-12-04T12:20:14;34.10;;;15.40;;
77217;SDS011;66214;51.302;17.068;2023-12-04T12:22:42;29.00;;;12.00;;
77217;SDS011;66214;51.302;17.068;2023-12-04T12:25:15;30.10;;;12.50;;
77217;SDS011;66214;51.302;17.068;2023-12-04T12:27:43;30.20;;;14.00;;
77217;SDS011;66214;51.302;17.068;2023-12-04T12:30:11;30.40;;;14.70;;
77217;SDS011;66214;51.302;17.068;2023-12-04T12:32:40;28.60;;;12.80;;
77217;SDS011;66214;51.302;17.068;2023-12-04T12:35:09;32.80;;;15.10;;
77217;SDS011;66214;51.302;17.068;2023-12-04T12:37:38;19.00;;;9.20;;
77217;SDS011;66214;51.302;17.068;2023-12-04T12:40:07;27.20;;;12.40;;
77217;SDS011;66214;51.302;17.068;2023-12-04T12:42:37;31.20;;;14.20;;
77217;SDS011;66214;51.302;17.068;2023-12-04T12:45:10;37.60;;;14.50;;
77217;SDS011;66214;51.302;17.068;2023-12-04T12:47:43;41.50;;;17.60;;
77217;SDS011;66214;51.302;17.068;2023-12-04T12:50:12;42.30;;;18.40;;
77217;SDS011;66214;51.302;17.068;2023-12-04T12:52:41;37.90;;;16.00;;
77217;SDS011;66214;51.302;17.068;2023-12-04T12:55:10;29.70;;;13.50;;
77217;SDS011;66214;51.302;17.068;2023-12-04T12:57:38;36.30;;;15.30;;
77217;SDS011;66214;51.302;17.068;2023-12-04T13:00:07;33.50;;;13.50;;
77217;SDS011;66214;51.302;17.068;2023-12-04T13:02:36;27.80;;;11.80;;
77217;SDS011;66214;51.302;17.068;2023-12-04T13:05:05;34.60;;;14.50;;
77217;SDS011;66214;51.302;17.068;2023-12-04T13:07:35;36.40;;;14.80;;
77217;SDS011;66214;51.302;17.068;2023-12-04T13:10:03;40.00;;;16.40;;
77217;SDS011;66214;51.302;17.068;2023-12-04T13:12:32;33.10;;;12.50;;
77217;SDS011;66214;51.302;17.068;2023-12-04T13:15:01;34.10;;;14.70;;
77217;SDS011;66214;51.302;17.068;2023-12-04T13:17:31;45.10;;;17.70;;
77217;SDS011;66214;51.302;17.068;2023-12-04T13:19:59;36.00;;;16.00;;
77217;SDS011;66214;51.302;17.068;2023-12-04T13:22:27;40.60;;;18.50;;
77217;SDS011;66214;51.302;17.068;2023-12-04T13:24:55;31.20;;;13.10;;
77217;SDS011;66214;51.302;17.068;2023-12-04T13:27:23;43.30;;;18.60;;
77217;SDS011;66214;51.302;17.068;2023-12-04T13:29:51;37.60;;;16.20;;
77217;SDS011;66214;51.302;17.068;2023-12-04T13:32:20;35.30;;;16.10;;
77217;SDS011;66214;51.302;17.068;2023-12-04T13:34:48;31.60;;;12.90;;
77217;SDS011;66214;51.302;17.068;2023-12-04T13:37:16;25.80;;;12.20;;
77217;SDS011;66214;51.302;17.068;2023-12-04T13:39:45;43.00;;;17.00;;
77217;SDS011;66214;51.302;17.068;2023-12-04T13:42:16;49.20;;;19.30;;
77217;SDS011;66214;51.302;17.068;2023-12-04T13:45:03;44.60;;;19.00;;
77217;SDS011;66214;51.302;17.068;2023-12-04T13:47:32;40.10;;;16.40;;
77217;SDS011;66214;51.302;17.068;2023-12-04T13:50:03;43.30;;;19.10;;
77217;SDS011;66214;51.302;17.068;2023-12-04T13:52:31;40.70;;;17.90;;
77217;SDS011;66214;51.302;17.068;2023-12-04T13:55:02;38.30;;;13.80;;
77217;SDS011;66214;51.302;17.068;2023-12-04T13:57:45;35.40;;;15.20;;
77217;SDS011;66214;51.302;17.068;2023-12-04T14:03:42;36.00;;;15.20;;
77217;SDS011;66214;51.302;17.068;2023-12-04T14:06:13;38.80;;;18.10;;
77217;SDS011;66214;51.302;17.068;2023-12-04T14:08:43;46.30;;;20.10;;
77217;SDS011;66214;51.302;17.068;2023-12-04T14:11:12;37.10;;;15.00;;
77217;SDS011;66214;51.302;17.068;2023-12-04T14:13:42;51.10;;;21.60;;
77217;SDS011;66214;51.302;17.068;2023-12-04T14:16:10;46.50;;;17.60;;
77217;SDS011;66214;51.302;17.068;2023-12-04T14:18:39;46.30;;;19.20;;
77217;SDS011;66214;51.302;17.068;2023-12-04T14:21:09;34.60;;;13.10;;
77217;SDS011;66214;51.302;17.068;2023-12-04T14:23:37;42.10;;;17.10;;
77217;SDS011;66214;51.302;17.068;2023-12-04T14:26:05;33.20;;;12.90;;
77217;SDS011;66214;51.302;17.068;2023-12-04T14:28:34;34.30;;;13.80;;
77217;SDS011;66214;51.302;17.068;2023-12-04T14:31:02;33.30;;;12.90;;
77217;SDS011;66214;51.302;17.068;2023-12-04T14:33:30;31.50;;;11.80;;
77217;SDS011;66214;51.302;17.068;2023-12-04T14:35:58;45.90;;;20.10;;
77217;SDS011;66214;51.302;17.068;2023-12-04T14:38:27;44.00;;;17.50;;
77217;SDS011;66214;51.302;17.068;2023-12-04T14:40:55;38.90;;;16.10;;
77217;SDS011;66214;51.302;17.068;2023-12-04T14:43:23;41.70;;;16.60;;
77217;SDS011;66214;51.302;17.068;2023-12-04T14:45:52;42.70;;;17.70;;
77217;SDS011;66214;51.302;17.068;2023-12-04T14:48:20;39.80;;;17.30;;
77217;SDS011;66214;51.302;17.068;2023-12-04T14:50:49;27.10;;;11.40;;
77217;SDS011;66214;51.302;17.068;2023-12-04T14:53:17;32.60;;;12.80;;
77217;SDS011;66214;51.302;17.068;2023-12-04T14:56:05;32.30;;;13.30;;
77217;SDS011;66214;51.302;17.068;2023-12-04T14:58:53;28.60;;;12.00;;
77217;SDS011;66214;51.302;17.068;2023-12-04T15:01:33;31.70;;;12.70;;
77217;SDS011;66214;51.302;17.068;2023-12-04T15:04:37;34.90;;;13.80;;
77217;SDS011;66214;51.302;17.068;2023-12-04T15:07:23;36.10;;;15.20;;
77217;SDS011;66214;51.302;17.068;2023-12-04T15:10:22;28.40;;;11.40;;
77217;SDS011;66214;51.302;17.068;2023-12-04T15:13:13;32.40;;;13.10;;
77217;SDS011;66214;51.302;17.068;2023-12-04T15:15:41;30.50;;;12.90;;
77217;SDS011;66214;51.302;17.068;2023-12-04T15:18:28;32.50;;;13.60;;
77217;SDS011;66214;51.302;17.068;2023-12-04T15:21:06;29.40;;;11.80;;
77217;SDS011;66214;51.302;17.068;2023-12-04T15:23:35;26.10;;;11.50;;
77217;SDS011;66214;51.302;17.068;2023-12-04T15:26:03;25.70;;;10.00;;
77217;SDS011;66214;51.302;17.068;2023-12-04T15:28:32;24.90;;;10.20;;
77217;SDS011;66214;51.302;17.068;2023-12-04T15:31:01;38.40;;;14.90;;
77217;SDS011;66214;51.302;17.068;2023-12-04T15:33:29;38.90;;;16.40;;
77217;SDS011;66214;51.302;17.068;2023-12-04T15:35:58;32.80;;;13.70;;
77217;SDS011;66214;51.302;17.068;2023-12-04T15:38:26;28.10;;;11.50;;
77217;SDS011;66214;51.302;17.068;2023-12-04T15:40:54;26.00;;;10.20;;
77217;SDS011;66214;51.302;17.068;2023-12-04T15:43:22;24.30;;;10.80;;
77217;SDS011;66214;51.302;17.068;2023-12-04T15:45:50;29.10;;;10.80;;
77217;SDS011;66214;51.302;17.068;2023-12-04T15:48:18;26.30;;;11.30;;
77217;SDS011;66214;51.302;17.068;2023-12-04T15:50:46;27.00;;;11.00;;
77217;SDS011;66214;51.302;17.068;2023-12-04T15:53:14;34.40;;;15.30;;
77217;SDS011;66214;51.302;17.068;2023-12-04T15:55:42;33.50;;;15.20;;
77217;SDS011;66214;51.302;17.068;2023-12-04T15:58:10;41.50;;;17.70;;
77217;SDS011;66214;51.302;17.068;2023-12-04T16:00:38;39.60;;;15.50;;
77217;SDS011;66214;51.302;17.068;2023-12-04T16:03:06;40.10;;;15.30;;
77217;SDS011;66214;51.302;17.068;2023-12-04T16:05:34;39.60;;;17.80;;
77217;SDS011;66214;51.302;17.068;2023-12-04T16:08:03;23.90;;;10.90;;
77217;SDS011;66214;51.302;17.068;2023-12-04T16:10:31;28.00;;;12.30;;
77217;SDS011;66214;51.302;17.068;2023-12-04T16:12:59;25.00;;;10.20;;
77217;SDS011;66214;51.302;17.068;2023-12-04T16:15:27;23.30;;;9.50;;
77217;SDS011;66214;51.302;17.068;2023-12-04T16:17:55;25.50;;;11.00;;
77217;SDS011;66214;51.302;17.068;2023-12-04T16:20:23;30.00;;;12.60;;
77217;SDS011;66214;51.302;17.068;2023-12-04T16:22:51;39.90;;;15.50;;
77217;SDS011;66214;51.302;17.068;2023-12-04T16:25:19;50.20;;;19.60;;
77217;SDS011;66214;51.302;17.068;2023-12-04T16:27:48;46.30;;;16.70;;
77217;SDS011;66214;51.302;17.068;2023-12-04T16:30:19;31.70;;;13.40;;
77217;SDS011;66214;51.302;17.068;2023-12-04T16:32:47;31.10;;;12.70;;
77217;SDS011;66214;51.302;17.068;2023-12-04T16:35:15;20.20;;;7.00;;
77217;SDS011;66214;51.302;17.068;2023-12-04T16:37:43;26.60;;;10.40;;
77217;SDS011;66214;51.302;17.068;2023-12-04T16:40:11;20.70;;;7.90;;
77217;SDS011;66214;51.302;17.068;2023-12-04T16:42:40;26.00;;;11.00;;
77217;SDS011;66214;51.302;17.068;2023-12-04T16:45:08;22.10;;;9.10;;
77217;SDS011;66214;51.302;17.068;2023-12-04T17:03:40;22.10;;;8.80;;
77217;SDS011;66214;51.302;17.068;2023-12-04T17:06:09;33.60;;;15.20;;
77217;SDS011;66214;51.302;17.068;2023-12-04T17:08:37;37.40;;;14.80;;
77217;SDS011;66214;51.302;17.068;2023-12-04T17:11:05;45.80;;;20.30;;
77217;SDS011;66214;51.302;17.068;2023-12-04T17:13:35;44.60;;;20.20;;
77217;SDS011;66214;51.302;17.068;2023-12-04T17:16:07;45.50;;;19.30;;
77217;SDS011;66214;51.302;17.068;2023-12-04T17:18:36;39.80;;;18.20;;
77217;SDS011;66214;51.302;17.068;2023-12-04T17:21:04;36.20;;;17.30;;
77217;SDS011;66214;51.302;17.068;2023-12-04T17:23:32;30.30;;;12.20;;
77217;SDS011;66214;51.302;17.068;2023-12-04T17:26:01;37.10;;;13.80;;
77217;SDS011;66214;51.302;17.068;2023-12-04T17:28:29;36.90;;;15.50;;
77217;SDS011;66214;51.302;17.068;2023-12-04T17:30:57;30.60;;;12.10;;
77217;SDS011;66214;51.302;17.068;2023-12-04T17:33:25;32.30;;;14.60;;
77217;SDS011;66214;51.302;17.068;2023-12-04T17:35:53;41.30;;;19.40;;
77217;SDS011;66214;51.302;17.068;2023-12-04T17:38:21;40.90;;;17.10;;
77217;SDS011;66214;51.302;17.068;2023-12-04T17:40:54;45.40;;;20.60;;
77217;SDS011;66214;51.302;17.068;2023-12-04T17:43:22;44.50;;;19.40;;
77217;SDS011;66214;51.302;17.068;2023-12-04T17:45:51;50.00;;;21.70;;
77217;SDS011;66214;51.302;17.068;2023-12-04T17:48:19;27.60;;;12.50;;
77217;SDS011;66214;51.302;17.068;2023-12-04T17:50:47;30.40;;;12.40;;
77217;SDS011;66214;51.302;17.068;2023-12-04T17:53:15;34.90;;;14.50;;
77217;SDS011;66214;51.302;17.068;2023-12-04T17:55:43;28.30;;;11.20;;
77217;SDS011;66214;51.302;17.068;2023-12-04T17:58:11;42.40;;;19.30;;
77217;SDS011;66214;51.302;17.068;2023-12-04T18:00:42;47.00;;;20.40;;
77217;SDS011;66214;51.302;17.068;2023-12-04T18:03:11;41.30;;;17.40;;
77217;SDS011;66214;51.302;17.068;2023-12-04T18:05:42;41.60;;;17.10;;
77217;SDS011;66214;51.302;17.068;2023-12-04T18:08:10;54.60;;;22.60;;
77217;SDS011;66214;51.302;17.068;2023-12-04T18:10:38;53.60;;;23.70;;
77217;SDS011;66214;51.302;17.068;2023-12-04T18:13:06;41.20;;;18.90;;
77217;SDS011;66214;51.302;17.068;2023-12-04T18:15:34;31.50;;;14.20;;
77217;SDS011;66214;51.302;17.068;2023-12-04T18:18:02;35.10;;;15.90;;
77217;SDS011;66214;51.302;17.068;2023-12-04T18:20:30;27.90;;;11.30;;
77217;SDS011;66214;51.302;17.068;2023-12-04T18:22:58;29.30;;;11.80;;
77217;SDS011;66214;51.302;17.068;2023-12-04T18:25:27;20.20;;;9.30;;
77217;SDS011;66214;51.302;17.068;2023-12-04T18:27:55;36.90;;;14.90;;
77217;SDS011;66214;51.302;17.068;2023-12-04T18:30:26;32.60;;;14.30;;
77217;SDS011;66214;51.302;17.068;2023-12-04T18:32:55;45.30;;;19.40;;
77217;SDS011;66214;51.302;17.068;2023-12-04T18:35:24;39.00;;;17.00;;
77217;SDS011;66214;51.302;17.068;2023-12-04T18:40:38;30.90;;;12.30;;
77217;SDS011;66214;51.302;17.068;2023-12-04T18:43:06;22.60;;;9.70;;
77217;SDS011;66214;51.302;17.068;2023-12-04T18:45:35;41.40;;;18.30;;
77217;SDS011;66214;51.302;17.068;2023-12-04T18:48:05;29.00;;;13.00;;
77217;SDS011;66214;51.302;17.068;2023-12-04T18:50:35;36.00;;;15.50;;
77217;SDS011;66214;51.302;17.068;2023-12-04T18:53:07;28.40;;;12.10;;